createdAt,value
2023-03-22T00:02:13.040Z,8.35
2023-03-22T00:04:39.533Z,8.10
2023-03-22T00:07:06.009Z,8.73
2023-03-22T00:09:32.497Z,7.57
2023-03-22T00:11:58.971Z,8.50
2023-03-22T00:14:25.625Z,8.02
2023-03-22T00:16:52.118Z,7.53
2023-03-22T00:19:18.667Z,7.60
2023-03-22T00:21:46.262Z,7.40
2023-03-22T00:24:13.056Z,7.63
2023-03-22T00:26:39.659Z,6.68
2023-03-22T00:29:06.249Z,6.30
2023-03-22T00:31:32.812Z,6.85
2023-03-22T00:34:00.143Z,6.63
2023-03-22T00:36:26.607Z,6.20
2023-03-22T00:38:53.117Z,6.75
2023-03-22T00:41:23.179Z,7.20
2023-03-22T00:43:51.405Z,6.13
2023-03-22T00:46:20.552Z,7.10
2023-03-22T00:48:48.069Z,6.80
2023-03-22T00:51:16.297Z,7.03
2023-03-22T00:53:43.805Z,6.03
2023-03-22T00:56:13.960Z,5.97
2023-03-22T00:58:40.943Z,6.85
2023-03-22T01:01:08.186Z,6.80
2023-03-22T01:03:35.044Z,5.68
2023-03-22T01:06:01.774Z,5.90
2023-03-22T01:08:32.997Z,5.82
2023-03-22T01:11:01.173Z,5.60
2023-03-22T01:13:28.929Z,6.00
2023-03-22T01:15:55.830Z,5.68
2023-03-22T01:18:22.364Z,6.22
2023-03-22T01:20:48.859Z,6.18
2023-03-22T01:23:15.870Z,6.22
2023-03-22T01:25:42.532Z,6.05
2023-03-22T01:28:09.690Z,6.45
2023-03-22T01:30:36.842Z,6.20
2023-03-22T01:33:03.455Z,6.15
2023-03-22T01:35:30.666Z,5.30
2023-03-22T01:37:57.155Z,5.97
2023-03-22T01:40:25.997Z,5.22
2023-03-22T01:42:56.353Z,6.07
2023-03-22T01:45:22.689Z,6.03
2023-03-22T01:47:56.992Z,5.07
2023-03-22T01:50:25.824Z,5.43
2023-03-22T01:52:57.017Z,5.22
2023-03-22T01:55:26.036Z,5.78
2023-03-22T01:57:54.671Z,4.72
2023-03-22T02:00:22.354Z,5.53
2023-03-22T02:02:52.374Z,5.60
2023-03-22T02:05:22.138Z,4.90
2023-03-22T02:07:50.117Z,5.25
2023-03-22T02:10:23.387Z,4.80
2023-03-22T02:13:26.696Z,5.07
2023-03-22T02:16:23.085Z,4.80
2023-03-22T02:19:05.738Z,4.80
2023-03-22T02:21:50.692Z,4.35
2023-03-22T02:24:50.881Z,5.88
2023-03-22T02:27:42.052Z,5.60
2023-03-22T02:30:58.728Z,13.70
2023-03-22T02:34:15.568Z,10.98
2023-03-22T02:37:27.089Z,6.72
2023-03-22T02:40:07.159Z,6.57
2023-03-22T02:43:10.764Z,9.55
2023-03-22T02:46:18.333Z,8.98
2023-03-22T02:49:03.741Z,8.93
2023-03-22T02:51:57.320Z,6.53
2023-03-22T02:54:39.777Z,5.18
2023-03-22T02:57:31.367Z,6.03
2023-03-22T03:00:01.263Z,6.03
2023-03-22T03:02:30.682Z,4.90
2023-03-22T03:04:58.547Z,6.18
2023-03-22T03:07:28.774Z,6.05
2023-03-22T03:09:56.468Z,6.97
2023-03-22T03:12:28.064Z,10.55
2023-03-22T03:14:54.746Z,6.53
2023-03-22T03:17:35.450Z,8.90
2023-03-22T03:20:30.019Z,8.82
2023-03-22T03:23:32.318Z,5.20
2023-03-22T03:26:35.695Z,7.25
2023-03-22T03:29:10.186Z,6.07
2023-03-22T03:32:06.568Z,7.68
2023-03-22T03:34:49.457Z,5.28
2023-03-22T03:37:28.211Z,6.22
2023-03-22T03:40:05.171Z,9.00
2023-03-22T03:42:32.511Z,8.02
2023-03-22T03:45:00.234Z,7.47
2023-03-22T03:47:29.298Z,16.90
2023-03-22T03:49:56.271Z,8.63
2023-03-22T03:52:24.447Z,7.85
2023-03-22T03:54:51.229Z,13.63
2023-03-22T03:57:17.894Z,7.60
2023-03-22T03:59:44.382Z,34.70
2023-03-22T04:02:10.917Z,13.45
2023-03-22T04:04:38.333Z,25.30
2023-03-22T04:07:07.058Z,13.20
2023-03-22T04:09:37.293Z,6.93
2023-03-22T04:12:04.140Z,5.90
2023-03-22T04:14:30.689Z,5.43
2023-03-22T04:16:57.324Z,6.30
2023-03-22T04:19:23.968Z,20.48
2023-03-22T04:21:53.094Z,48.10
2023-03-22T04:24:21.806Z,24.65
2023-03-22T04:26:48.842Z,113.25
2023-03-22T04:29:16.031Z,100.97
2023-03-22T04:31:42.519Z,26.40
2023-03-22T04:34:09.000Z,24.95
2023-03-22T04:36:39.303Z,9.80
2023-03-22T04:39:10.381Z,9.98
2023-03-22T04:41:37.535Z,8.73
2023-03-22T04:44:05.909Z,9.30
2023-03-22T04:46:36.586Z,9.00
2023-03-22T04:49:06.581Z,33.53
2023-03-22T04:51:33.074Z,11.60
2023-03-22T04:54:00.338Z,129.75
2023-03-22T04:56:26.980Z,72.95
2023-03-22T04:58:53.459Z,105.30
2023-03-22T05:01:19.996Z,106.55
2023-03-22T05:03:47.399Z,63.38
2023-03-22T05:06:15.704Z,249.98
2023-03-22T05:08:42.747Z,65.70
2023-03-22T05:11:17.004Z,60.88
2023-03-22T05:13:43.499Z,17.20
2023-03-22T05:16:11.101Z,34.38
2023-03-22T05:18:42.251Z,138.20
2023-03-22T05:21:15.529Z,87.57
2023-03-22T05:23:43.906Z,83.03
2023-03-22T05:26:16.000Z,29.25
2023-03-22T05:28:44.177Z,9.63
2023-03-22T05:31:11.671Z,8.55
2023-03-22T05:33:38.288Z,7.40
2023-03-22T05:36:05.343Z,7.50
2023-03-22T05:38:31.817Z,10.38
2023-03-22T05:40:58.280Z,7.20
2023-03-22T05:43:24.769Z,32.80
2023-03-22T05:45:51.337Z,39.28
2023-03-22T05:48:18.043Z,282.33
2023-03-22T05:50:44.556Z,277.95
2023-03-22T05:53:11.818Z,139.00
2023-03-22T05:55:38.643Z,49.17
2023-03-22T05:58:05.396Z,14.52
2023-03-22T06:00:32.241Z,7.60
2023-03-22T06:03:03.463Z,20.35
2023-03-22T06:05:31.776Z,29.40
2023-03-22T06:07:59.710Z,20.35
2023-03-22T06:10:28.029Z,9.23
2023-03-22T06:12:54.785Z,11.00
2023-03-22T06:15:21.777Z,8.95
2023-03-22T06:17:48.341Z,21.70
2023-03-22T06:20:15.509Z,9.57
2023-03-22T06:22:42.730Z,8.80
2023-03-22T06:25:10.856Z,15.60
2023-03-22T06:27:37.628Z,10.85
2023-03-22T06:30:05.327Z,8.73
2023-03-22T06:32:31.784Z,10.23
2023-03-22T06:34:58.325Z,14.32
2023-03-22T06:37:25.505Z,12.15
2023-03-22T06:39:52.220Z,8.77
2023-03-22T06:42:19.130Z,6.28
2023-03-22T06:44:45.670Z,10.10
2023-03-22T06:47:12.620Z,10.15
2023-03-22T06:49:39.726Z,12.48
2023-03-22T06:52:06.551Z,7.30
2023-03-22T06:54:33.268Z,7.43
2023-03-22T06:56:59.931Z,5.63
2023-03-22T06:59:26.637Z,24.95
2023-03-22T07:01:53.168Z,35.40
2023-03-22T07:04:20.043Z,33.17
2023-03-22T07:06:46.920Z,7.30
2023-03-22T07:09:13.414Z,6.32
2023-03-22T07:11:40.093Z,11.85
2023-03-22T07:14:06.683Z,15.45
2023-03-22T07:16:33.221Z,6.07
2023-03-22T07:18:59.761Z,44.67
2023-03-22T07:21:26.599Z,10.32
2023-03-22T07:23:53.355Z,17.00
2023-03-22T07:26:19.825Z,5.03
2023-03-22T07:28:46.360Z,8.00
2023-03-22T07:31:14.385Z,9.40
2023-03-22T07:33:41.228Z,8.00
2023-03-22T07:36:08.853Z,6.78
2023-03-22T07:38:36.126Z,14.18
2023-03-22T07:41:02.601Z,4.72
2023-03-22T07:43:29.189Z,55.58
2023-03-22T07:45:55.758Z,8.93
2023-03-22T07:48:23.601Z,5.68
2023-03-22T07:50:54.159Z,7.25
2023-03-22T07:53:20.767Z,121.10
2023-03-22T07:55:48.041Z,12.73
2023-03-22T07:58:14.918Z,6.25
2023-03-22T08:00:41.770Z,4.93
2023-03-22T08:03:13.239Z,4.78
2023-03-22T08:05:42.818Z,8.95
2023-03-22T08:08:10.038Z,6.00
2023-03-22T08:10:36.801Z,11.35
2023-03-22T08:13:03.389Z,5.75
2023-03-22T08:15:29.989Z,4.38
2023-03-22T08:17:58.003Z,4.10
2023-03-22T08:20:27.490Z,5.38
2023-03-22T08:22:54.854Z,10.00
2023-03-22T08:25:22.194Z,4.13
2023-03-22T08:27:48.705Z,4.43
2023-03-22T08:30:15.465Z,7.47
2023-03-22T08:32:42.065Z,5.70
2023-03-22T08:35:09.574Z,5.93
2023-03-22T08:37:36.174Z,6.05
2023-03-22T08:40:04.928Z,5.18
2023-03-22T08:42:31.505Z,4.20
2023-03-22T08:44:57.956Z,3.92
2023-03-22T08:47:24.474Z,4.13
2023-03-22T08:49:51.056Z,8.15
2023-03-22T08:52:17.531Z,9.20
2023-03-22T08:54:44.073Z,4.47
2023-03-22T08:57:10.910Z,3.85
2023-03-22T08:59:37.428Z,3.85
2023-03-22T09:02:04.121Z,4.75
2023-03-22T09:04:30.875Z,4.32
2023-03-22T09:06:57.374Z,3.80
2023-03-22T09:09:23.874Z,3.67
2023-03-22T09:11:50.506Z,4.72
2023-03-22T09:14:17.093Z,4.13
2023-03-22T09:16:43.694Z,3.63
2023-03-22T09:19:10.386Z,3.80
2023-03-22T09:21:37.610Z,3.65
2023-03-22T09:24:04.392Z,5.05
2023-03-22T09:26:31.006Z,3.95
2023-03-22T09:28:57.505Z,4.47
2023-03-22T09:31:24.115Z,3.50
2023-03-22T09:33:50.601Z,3.53
2023-03-22T09:36:17.243Z,3.60
2023-03-22T09:38:43.768Z,3.42
2023-03-22T09:41:20.724Z,3.40
2023-03-22T09:44:00.938Z,3.40
2023-03-22T09:46:35.884Z,3.30
2023-03-22T09:49:12.626Z,3.40
2023-03-22T09:51:52.250Z,3.35
2023-03-22T09:54:24.957Z,3.15
2023-03-22T09:57:04.888Z,3.10
2023-03-22T09:59:39.913Z,2.85
2023-03-22T10:02:43.038Z,2.60
2023-03-22T10:05:17.846Z,3.28
2023-03-22T10:08:06.385Z,2.83
2023-03-22T10:10:33.015Z,2.70
2023-03-22T10:13:10.459Z,3.13
2023-03-22T10:15:43.145Z,2.95
2023-03-22T10:18:20.093Z,2.47
2023-03-22T10:20:59.130Z,2.25
2023-03-22T10:24:16.840Z,2.67
2023-03-22T10:26:47.720Z,2.33
2023-03-22T10:29:39.903Z,2.80
2023-03-22T10:32:16.561Z,2.47
2023-03-22T10:34:44.062Z,2.22
2023-03-22T10:37:23.121Z,2.50
2023-03-22T10:39:55.197Z,2.70
2023-03-22T10:42:30.012Z,2.60
2023-03-22T10:45:14.117Z,2.00
2023-03-22T10:47:57.753Z,2.38
2023-03-22T10:50:34.304Z,2.50
2023-03-22T10:55:45.288Z,2.08
2023-03-22T10:58:17.250Z,4.82
2023-03-22T11:00:50.425Z,2.75
2023-03-22T11:03:29.967Z,2.13
2023-03-22T11:06:07.060Z,2.10
2023-03-22T11:08:48.447Z,2.10
2023-03-22T11:11:23.424Z,2.03
2023-03-22T11:13:55.764Z,2.10
2023-03-22T11:16:23.709Z,2.03
2023-03-22T11:18:50.658Z,2.15
2023-03-22T11:21:21.314Z,1.90
2023-03-22T11:24:02.557Z,2.65
2023-03-22T11:26:40.522Z,2.15
2023-03-22T11:29:16.969Z,2.10
2023-03-22T11:31:59.609Z,1.98
2023-03-22T11:34:30.832Z,2.10
2023-03-22T11:37:01.073Z,2.05
2023-03-22T11:39:29.573Z,2.30
2023-03-22T11:42:03.827Z,1.85
2023-03-22T11:44:37.822Z,2.03
2023-03-22T11:47:08.124Z,1.98
2023-03-22T11:49:47.358Z,5.03
2023-03-22T11:52:23.024Z,2.50
2023-03-22T11:54:51.772Z,13.23
2023-03-22T11:57:26.418Z,3.10
2023-03-22T12:00:02.486Z,2.15
2023-03-22T12:02:41.749Z,2.03
2023-03-22T12:05:20.955Z,2.58
2023-03-22T12:07:58.805Z,2.08
2023-03-22T12:10:38.499Z,2.40
2023-03-22T12:13:19.104Z,2.22
2023-03-22T12:15:54.812Z,2.05
2023-03-22T12:18:41.406Z,1.80
2023-03-22T12:21:13.587Z,2.20
2023-03-22T12:23:40.209Z,4.13
2023-03-22T12:26:11.541Z,1.98
2023-03-22T12:29:06.394Z,2.20
2023-03-22T12:31:40.489Z,1.90
2023-03-22T12:34:17.037Z,1.60
2023-03-22T12:36:56.069Z,2.03
2023-03-22T12:39:37.688Z,2.30
2023-03-22T12:42:26.388Z,1.90
2023-03-22T12:45:05.708Z,2.40
2023-03-22T12:47:42.504Z,2.30
2023-03-22T12:50:17.004Z,4.22
2023-03-22T12:52:50.209Z,2.08
2023-03-22T12:55:38.172Z,2.15
2023-03-22T12:58:10.381Z,1.67
2023-03-22T13:00:46.751Z,2.33
2023-03-22T13:05:46.556Z,2.13
2023-03-22T13:08:13.491Z,3.40
2023-03-22T13:11:08.400Z,18.58
2023-03-22T13:13:44.692Z,2.80
2023-03-22T13:18:38.129Z,3.42
2023-03-22T13:21:22.611Z,2.20
2023-03-22T13:24:13.388Z,1.88
2023-03-22T13:26:47.809Z,2.35
2023-03-22T13:29:24.452Z,2.47
2023-03-22T13:31:51.023Z,2.05
2023-03-22T13:34:31.893Z,1.63
2023-03-22T13:37:01.508Z,1.92
2023-03-22T13:39:34.552Z,1.95
2023-03-22T13:42:19.913Z,1.70
2023-03-22T13:44:58.485Z,1.92
2023-03-22T13:47:47.012Z,2.10
2023-03-22T13:50:27.422Z,1.80
2023-03-22T13:53:07.560Z,2.03
2023-03-22T13:55:46.320Z,1.67
2023-03-22T13:58:36.450Z,2.05
2023-03-22T14:01:34.984Z,1.60
2023-03-22T14:04:10.554Z,1.60
2023-03-22T14:06:59.983Z,2.23
2023-03-22T14:09:52.840Z,2.78
2023-03-22T14:12:31.002Z,1.92
2023-03-22T14:15:03.488Z,1.80
2023-03-22T14:17:55.695Z,2.00
2023-03-22T14:20:27.002Z,2.00
